»·PEaware :: WAT169 KSNA-KLAS

WAT169 :: KSNA-KLAS

FLIGHT INFORMATION

Flight Status: Arrived
Operator:
Walker Air Transport
More flights by this operator :: More flights under this callsign
Pilot: Marty P. (27464)
Aircraft: BOEING 737-800
(B738)
More flights by this aircraft type
Origin: KSNA John Wayne-Orange Co
United States
Destination: KLAS McCarran Intl
United States
More flights between these airports :: More routes between these airports
Route: FINZZ3 MISEN KEPEC6
File this flight plan on PilotEdge
Remarks:
Altitude:
(Current/Filed)
27,000ft
Speed:
(Current/Filed)
480kts
Departed: 16-Oct-20 08:35 PM
Arrived: 16-Oct-20 09:19 PM
Distance/Time
Traveled:
197nm/0:44
Distance/Time
To Go:
Arrived

Flight Plot

Page will automatically refresh every two minutes.

Flight plan parsing failed; only flown route is shown


Map Options




Map Legend


Flown Route
Filed Route
Departure Airport
Arrival Airport
Navaid (VOR, NDB)
Fix

Horizontal Profiles

Position Reports

Time Latitude Longitude Heading Altitude Ground
Speed
16-Oct-20 20:12 33.675005 -117.865072 118 66ft 0kts
16-Oct-20 20:13 33.675005 -117.865072 118 66ft 0kts
16-Oct-20 20:14 33.675005 -117.865072 118 66ft 0kts
16-Oct-20 20:15 33.675005 -117.865072 118 66ft 0kts
16-Oct-20 20:16 33.675005 -117.865072 118 66ft 0kts
16-Oct-20 20:17 33.675005 -117.865072 118 66ft 0kts
16-Oct-20 20:18 33.675005 -117.865072 118 66ft 0kts
16-Oct-20 20:19 33.675005 -117.865072 118 66ft 0kts
16-Oct-20 20:20 33.675005 -117.865072 118 66ft 0kts
16-Oct-20 20:21 33.675005 -117.865073 118 66ft 0kts
16-Oct-20 20:22 33.675005 -117.865073 118 66ft 0kts
16-Oct-20 20:23 33.675005 -117.865073 118 66ft 0kts
16-Oct-20 20:24 33.675005 -117.865073 118 66ft 0kts
16-Oct-20 20:25 33.675005 -117.865073 118 66ft 0kts
16-Oct-20 20:26 33.675040 -117.865150 117 66ft 2kts
16-Oct-20 20:27 33.675118 -117.865759 58 66ft 2kts
16-Oct-20 20:28 33.674922 -117.865964 27 66ft 0kts
16-Oct-20 20:29 33.675629 -117.865504 27 66ft 9kts
16-Oct-20 20:30 33.677784 -117.864144 27 66ft 13kts
16-Oct-20 20:31 33.680958 -117.863771 297 66ft 8kts
16-Oct-20 20:32 33.681450 -117.865073 277 66ft 4kts
16-Oct-20 20:33 33.681189 -117.865354 206 66ft 0kts
16-Oct-20 20:34 33.679311 -117.866532 207 66ft 70kts
16-Oct-20 20:35 33.639257 -117.889227 195 1694ft 191kts
16-Oct-20 20:36 33.577370 -117.902034 203 4755ft 251kts
16-Oct-20 20:37 33.522338 -117.955057 229 8752ft 267kts
16-Oct-20 20:38 33.512740 -118.040750 299 11556ft 307kts
16-Oct-20 20:40 33.588820 -118.105106 350 13675ft 365kts
16-Oct-20 20:41 33.687055 -118.073147 25 16653ft 383kts
16-Oct-20 20:42 33.784989 -118.015809 25 19258ft 399kts
16-Oct-20 20:43 33.885899 -117.955058 31 21481ft 416kts
16-Oct-20 20:44 33.981095 -117.874787 36 24137ft 412kts
16-Oct-20 20:45 34.068233 -117.792214 43 26980ft 395kts
16-Oct-20 20:46 34.147912 -117.687375 49 26981ft 451kts
16-Oct-20 20:47 34.232389 -117.564512 50 26986ft 497kts
16-Oct-20 20:48 34.323074 -117.430115 50 27044ft 529kts
16-Oct-20 20:49 34.417189 -117.289234 51 27094ft 545kts
16-Oct-20 20:50 34.513017 -117.145463 50 27081ft 550kts
16-Oct-20 20:51 34.610280 -117.001901 49 27105ft 551kts
16-Oct-20 20:52 34.708212 -116.859212 49 27073ft 553kts
16-Oct-20 20:53 34.806504 -116.715450 49 27073ft 553kts
16-Oct-20 20:54 34.916909 -116.585598 38 27069ft 550kts
16-Oct-20 20:55 35.029666 -116.474813 37 25354ft 493kts
16-Oct-20 20:56 35.128987 -116.369189 44 23241ft 470kts
16-Oct-20 20:57 35.219519 -116.256888 44 21233ft 457kts
16-Oct-20 20:57 35.292462 -116.165629 44 19565ft 446kts
16-Oct-20 20:59 35.391323 -116.041241 44 17229ft 428kts
16-Oct-20 20:59 35.457327 -115.957805 43 15556ft 394kts
16-Oct-20 21:01 35.542248 -115.850101 43 13225ft 362kts
16-Oct-20 21:01 35.596438 -115.781132 42 13037ft 307kts
16-Oct-20 21:03 35.664056 -115.695160 42 13040ft 301kts
16-Oct-20 21:03 35.712204 -115.633324 42 13048ft 300kts
16-Oct-20 21:04 35.780772 -115.578465 12 13048ft 293kts
16-Oct-20 21:05 35.861341 -115.569606 0 13044ft 291kts
16-Oct-20 21:06 35.942122 -115.561970 15 13015ft 295kts
16-Oct-20 21:07 35.996374 -115.488031 65 12195ft 308kts
16-Oct-20 21:08 36.025346 -115.390431 73 10969ft 295kts
16-Oct-20 21:09 36.025124 -115.290434 93 9773ft 288kts
16-Oct-20 21:10 36.017967 -115.193942 93 9005ft 265kts
16-Oct-20 21:11 36.011837 -115.103453 93 7631ft 257kts
16-Oct-20 21:12 36.006632 -115.019330 93 5914ft 231kts
16-Oct-20 21:13 36.014956 -114.951631 22 4680ft 195kts
16-Oct-20 21:14 36.067135 -114.956350 328 4461ft 194kts
16-Oct-20 21:15 36.073645 -115.018069 268 3805ft 179kts
16-Oct-20 21:16 36.073647 -115.073680 270 2917ft 156kts
16-Oct-20 21:17 36.073653 -115.127115 270 2087ft 154kts
16-Oct-20 21:18 36.074692 -115.145838 299 2103ft 6kts
16-Oct-20 21:19 36.075538 -115.146531 356 2106ft 17kts
16-Oct-20 21:20 36.080258 -115.147716 98 2100ft 7kts
16-Oct-20 21:21 36.080340 -115.147242 67 2099ft 0kts
16-Oct-20 21:22 36.080319 -115.147303 67 2099ft 0kts
16-Oct-20 21:23 36.080319 -115.147303 67 2099ft 0kts
16-Oct-20 21:24 36.080319 -115.147303 67 2099ft 0kts
16-Oct-20 21:25 36.080319 -115.147303 67 2099ft 0kts
16-Oct-20 21:26 36.080319 -115.147303 67 2099ft 0kts

Navigation Log

Ident Type
Flight plan parsing failed, navigation log unavailable